createdAt,value
2019-01-09T00:00:40.293Z,0.00
2019-01-09T00:01:40.311Z,0.00
2019-01-09T00:02:40.334Z,0.00
2019-01-09T00:03:40.361Z,0.00
2019-01-09T00:04:40.382Z,0.00
2019-01-09T00:05:40.401Z,0.00
2019-01-09T00:06:40.426Z,0.00
2019-01-09T00:07:40.450Z,0.00
2019-01-09T00:08:40.469Z,0.00
2019-01-09T00:09:40.492Z,0.00
2019-01-09T00:10:40.514Z,0.00
2019-01-09T00:11:40.538Z,0.00
2019-01-09T00:12:40.560Z,0.00
2019-01-09T00:13:40.581Z,0.00
2019-01-09T00:14:40.605Z,0.00
2019-01-09T00:15:40.627Z,0.00
2019-01-09T00:16:40.646Z,0.00
2019-01-09T00:17:40.669Z,0.00
2019-01-09T00:18:40.693Z,0.00
2019-01-09T00:19:40.716Z,0.00
2019-01-09T00:20:40.739Z,0.00
2019-01-09T00:21:40.758Z,0.00
2019-01-09T00:22:40.784Z,0.00
2019-01-09T00:23:40.802Z,0.00
2019-01-09T00:24:40.827Z,0.00
2019-01-09T00:25:40.847Z,0.00
2019-01-09T00:26:40.870Z,0.00
2019-01-09T00:27:40.894Z,0.00
2019-01-09T00:28:40.914Z,0.00
2019-01-09T00:29:40.938Z,0.00
2019-01-09T00:30:40.958Z,0.00
2019-01-09T00:31:40.983Z,0.00
2019-01-09T00:32:41.005Z,0.00
2019-01-09T00:33:41.024Z,0.00
2019-01-09T00:34:41.053Z,0.00
2019-01-09T00:35:41.071Z,0.00
2019-01-09T00:36:41.094Z,0.00
2019-01-09T00:37:41.113Z,0.00
2019-01-09T00:38:41.138Z,0.00
2019-01-09T00:39:41.158Z,0.00
2019-01-09T00:40:41.183Z,0.00
2019-01-09T00:41:41.202Z,0.00
2019-01-09T00:42:41.227Z,0.00
2019-01-09T00:43:41.247Z,0.00
2019-01-09T00:44:41.272Z,0.00
2019-01-09T00:45:41.291Z,0.00
2019-01-09T00:46:41.316Z,0.00
2019-01-09T00:47:41.338Z,0.00
2019-01-09T00:48:41.361Z,0.00
2019-01-09T00:49:41.382Z,0.00
2019-01-09T00:50:41.402Z,0.00
2019-01-09T00:51:41.425Z,0.00
2019-01-09T00:52:41.447Z,0.00
2019-01-09T00:53:41.469Z,0.00
2019-01-09T00:54:41.491Z,0.00
2019-01-09T00:55:41.513Z,0.00
2019-01-09T00:56:41.536Z,0.00
2019-01-09T00:57:41.557Z,0.00
2019-01-09T00:58:41.579Z,0.00
2019-01-09T00:59:41.604Z,0.00
2019-01-09T01:00:41.625Z,0.00
2019-01-09T01:01:41.705Z,0.00
2019-01-09T01:02:41.670Z,0.00
2019-01-09T01:03:41.691Z,0.00
2019-01-09T01:04:41.714Z,0.00
2019-01-09T01:05:46.292Z,0.00
2019-01-09T01:06:41.759Z,0.00
2019-01-09T01:07:41.779Z,0.00
2019-01-09T01:08:41.804Z,0.00
2019-01-09T01:09:41.826Z,0.00
2019-01-09T01:10:41.848Z,0.00
2019-01-09T01:11:41.872Z,0.00
2019-01-09T01:12:41.890Z,0.00
2019-01-09T01:13:41.912Z,0.00
2019-01-09T01:14:41.936Z,0.00
2019-01-09T01:15:41.961Z,0.00
2019-01-09T01:16:41.981Z,0.00
2019-01-09T01:17:41.999Z,0.00
2019-01-09T01:18:42.025Z,0.00
2019-01-09T01:19:42.045Z,0.00
2019-01-09T01:20:42.075Z,0.00
2019-01-09T01:21:42.091Z,0.00
2019-01-09T01:22:42.114Z,0.00
2019-01-09T01:23:42.135Z,0.00
2019-01-09T01:24:42.156Z,0.00
2019-01-09T01:25:42.179Z,0.00
2019-01-09T01:26:42.201Z,0.00
2019-01-09T01:27:42.221Z,0.00
2019-01-09T01:28:42.244Z,0.00
2019-01-09T01:29:42.264Z,0.00
2019-01-09T01:30:42.286Z,0.00
2019-01-09T01:31:42.312Z,0.00
2019-01-09T01:32:42.421Z,0.00
2019-01-09T01:33:42.354Z,0.00
2019-01-09T01:34:42.376Z,0.00
2019-01-09T01:35:42.397Z,0.00
2019-01-09T01:36:42.425Z,0.00
2019-01-09T01:37:42.443Z,0.00
2019-01-09T01:38:42.464Z,0.00
2019-01-09T01:39:42.484Z,0.00
2019-01-09T01:40:42.512Z,0.00
2019-01-09T01:41:42.528Z,0.00
2019-01-09T01:42:42.553Z,0.00
2019-01-09T01:43:42.572Z,0.00
2019-01-09T01:44:42.597Z,0.00
2019-01-09T01:45:42.615Z,0.00
2019-01-09T01:46:42.644Z,0.00
2019-01-09T01:47:42.660Z,0.00
2019-01-09T01:48:42.686Z,0.00
2019-01-09T01:49:42.707Z,0.00
2019-01-09T01:50:42.729Z,0.00
2019-01-09T01:51:42.752Z,0.00
2019-01-09T01:52:42.774Z,0.00
2019-01-09T01:53:42.794Z,0.00
2019-01-09T01:54:42.817Z,0.00
2019-01-09T01:55:42.839Z,0.00
2019-01-09T01:56:42.865Z,0.00
2019-01-09T01:57:42.886Z,0.00
2019-01-09T01:58:42.910Z,0.00
2019-01-09T01:59:42.925Z,0.00
2019-01-09T02:00:42.950Z,0.00
2019-01-09T02:01:42.972Z,0.00
2019-01-09T02:02:42.992Z,0.00
2019-01-09T02:03:43.013Z,0.00
2019-01-09T02:04:43.039Z,0.00
2019-01-09T02:05:43.060Z,0.00
2019-01-09T02:06:43.084Z,0.00
2019-01-09T02:07:43.104Z,0.00
2019-01-09T02:08:43.125Z,0.00
2019-01-09T02:09:43.148Z,0.00
2019-01-09T02:10:43.168Z,0.00
2019-01-09T02:11:43.192Z,0.00
2019-01-09T02:12:43.215Z,0.00
2019-01-09T02:13:43.233Z,0.00
2019-01-09T02:14:43.258Z,0.00
2019-01-09T02:15:43.279Z,0.00
2019-01-09T02:16:43.303Z,0.00
2019-01-09T02:17:43.325Z,0.00
2019-01-09T02:18:43.346Z,0.00
2019-01-09T02:19:43.369Z,0.00
2019-01-09T02:20:43.390Z,0.00
2019-01-09T02:21:43.410Z,0.00
2019-01-09T02:22:43.431Z,0.00
2019-01-09T02:23:43.460Z,0.00
2019-01-09T02:24:43.478Z,0.00
2019-01-09T02:25:43.502Z,0.00
2019-01-09T02:26:43.524Z,0.00
2019-01-09T02:27:43.544Z,0.00
2019-01-09T02:28:43.566Z,0.00
2019-01-09T02:29:43.585Z,0.00
2019-01-09T02:30:43.616Z,0.00
2019-01-09T02:31:43.638Z,0.00
2019-01-09T02:32:43.740Z,0.00
2019-01-09T02:33:43.675Z,0.00
2019-01-09T02:34:43.700Z,0.00
2019-01-09T02:35:43.716Z,0.00
2019-01-09T02:36:43.741Z,0.00
2019-01-09T02:37:43.761Z,0.00
2019-01-09T02:38:43.785Z,0.00
2019-01-09T02:39:43.809Z,0.00
2019-01-09T02:40:43.826Z,0.00
2019-01-09T02:41:43.849Z,0.00
2019-01-09T02:42:43.870Z,0.00
2019-01-09T02:43:43.947Z,0.00
2019-01-09T02:44:43.918Z,0.00
2019-01-09T02:45:43.944Z,0.00
2019-01-09T02:46:43.959Z,0.00
2019-01-09T02:47:43.983Z,0.00
2019-01-09T02:48:44.005Z,0.00
2019-01-09T02:49:44.028Z,0.00
2019-01-09T02:50:44.050Z,0.00
2019-01-09T02:51:44.070Z,0.00
2019-01-09T02:52:44.102Z,0.00
2019-01-09T02:53:44.113Z,0.00
2019-01-09T02:54:44.138Z,0.00
2019-01-09T02:55:44.158Z,0.00
2019-01-09T02:56:44.185Z,0.00
2019-01-09T02:57:44.217Z,0.00
2019-01-09T02:58:44.226Z,0.00
2019-01-09T02:59:44.252Z,0.00
2019-01-09T03:00:44.286Z,0.00
2019-01-09T03:01:44.292Z,0.00
2019-01-09T03:02:44.313Z,0.00
2019-01-09T03:03:44.341Z,0.00
2019-01-09T03:04:44.358Z,0.00
2019-01-09T03:05:44.381Z,0.00
2019-01-09T03:06:44.402Z,0.00
2019-01-09T03:07:44.425Z,0.00
2019-01-09T03:08:44.447Z,0.00
2019-01-09T03:09:44.471Z,0.00
2019-01-09T03:10:44.494Z,0.00
2019-01-09T03:11:44.509Z,0.00
2019-01-09T03:12:44.533Z,0.00
2019-01-09T03:13:44.563Z,0.00
2019-01-09T03:14:44.577Z,0.00
2019-01-09T03:15:44.602Z,0.00
2019-01-09T03:16:44.625Z,0.00
2019-01-09T03:17:44.643Z,0.00
2019-01-09T03:18:44.672Z,0.00
2019-01-09T03:19:44.692Z,0.00
2019-01-09T03:20:44.713Z,0.00
2019-01-09T03:21:44.733Z,0.00
2019-01-09T03:22:44.754Z,0.00
2019-01-09T03:23:44.778Z,0.00
2019-01-09T03:24:44.797Z,0.00
2019-01-09T03:25:44.820Z,0.00
2019-01-09T03:26:44.843Z,0.00
2019-01-09T03:27:44.865Z,0.00
2019-01-09T03:28:44.887Z,0.00
2019-01-09T03:29:44.913Z,0.00
2019-01-09T03:30:44.940Z,0.00
2019-01-09T03:31:44.954Z,0.00
2019-01-09T03:32:44.986Z,0.00
2019-01-09T03:33:44.996Z,0.00
2019-01-09T03:34:45.019Z,0.00
2019-01-09T03:35:45.044Z,0.00
2019-01-09T03:36:45.061Z,0.00
2019-01-09T03:37:45.084Z,0.00
2019-01-09T03:38:45.106Z,0.00
2019-01-09T03:39:45.129Z,0.00
2019-01-09T03:40:45.150Z,0.00
2019-01-09T03:41:45.172Z,0.00
2019-01-09T03:42:45.191Z,0.00
2019-01-09T03:43:45.212Z,0.00
2019-01-09T03:44:45.235Z,0.00
2019-01-09T03:45:45.265Z,0.00
2019-01-09T03:46:45.280Z,0.00
2019-01-09T03:47:45.303Z,0.00
2019-01-09T03:48:45.323Z,0.00
2019-01-09T03:49:45.343Z,0.00
2019-01-09T03:50:45.365Z,0.00
2019-01-09T03:51:45.389Z,0.00
2019-01-09T03:52:45.410Z,0.00
2019-01-09T03:53:45.431Z,0.00
2019-01-09T03:54:45.454Z,0.00
2019-01-09T03:55:45.476Z,0.00
2019-01-09T03:56:45.507Z,0.00
2019-01-09T03:57:45.520Z,0.00
2019-01-09T03:58:45.542Z,0.00
2019-01-09T03:59:45.564Z,0.00
2019-01-09T04:00:45.586Z,0.00
2019-01-09T04:01:45.609Z,0.00
2019-01-09T04:02:45.629Z,0.00
2019-01-09T04:03:45.651Z,0.00
2019-01-09T04:04:45.874Z,0.00
2019-01-09T04:05:45.692Z,0.00
2019-01-09T04:06:45.718Z,0.00
2019-01-09T04:07:45.738Z,0.00
2019-01-09T04:08:45.767Z,0.00
2019-01-09T04:09:45.780Z,0.00
2019-01-09T04:10:45.809Z,0.00
2019-01-09T04:11:45.826Z,0.00
2019-01-09T04:12:45.853Z,0.00
2019-01-09T04:13:45.868Z,0.00
2019-01-09T04:14:45.888Z,0.00
2019-01-09T04:15:45.921Z,0.00
2019-01-09T04:16:45.931Z,0.00
2019-01-09T04:17:45.961Z,0.00
2019-01-09T04:18:45.978Z,0.00
2019-01-09T04:19:46.000Z,0.00
2019-01-09T04:20:46.025Z,0.00
2019-01-09T04:21:46.047Z,0.00
2019-01-09T04:22:46.069Z,0.00
2019-01-09T04:23:46.087Z,0.00
2019-01-09T04:24:46.106Z,0.00
2019-01-09T04:25:46.130Z,0.00
2019-01-09T04:26:46.150Z,0.00
2019-01-09T04:27:46.171Z,0.00
2019-01-09T04:28:46.193Z,0.00
2019-01-09T04:29:46.215Z,0.00
2019-01-09T04:30:46.235Z,0.00
2019-01-09T04:31:46.258Z,0.00
2019-01-09T04:32:46.280Z,0.00
2019-01-09T04:33:46.302Z,0.00
2019-01-09T04:34:46.366Z,0.00
2019-01-09T04:35:46.346Z,0.00
2019-01-09T04:36:51.376Z,0.00
2019-01-09T04:37:46.388Z,0.00
2019-01-09T04:38:46.420Z,0.00
2019-01-09T04:39:46.436Z,0.00
2019-01-09T04:40:47.753Z,0.00
2019-01-09T04:41:46.473Z,0.00
2019-01-09T04:42:46.499Z,0.00
2019-01-09T04:43:46.520Z,0.00
2019-01-09T04:44:46.543Z,0.00
2019-01-09T04:45:46.567Z,0.00
2019-01-09T04:46:46.587Z,0.00
2019-01-09T04:47:46.603Z,0.00
2019-01-09T04:48:46.645Z,0.00
2019-01-09T04:49:46.654Z,0.00
2019-01-09T04:50:46.676Z,0.00
2019-01-09T04:51:46.690Z,0.00
2019-01-09T04:52:46.713Z,0.00
2019-01-09T04:53:46.739Z,0.00
2019-01-09T04:54:46.756Z,0.00
2019-01-09T04:55:46.777Z,0.00
2019-01-09T04:56:46.802Z,0.00
2019-01-09T04:57:46.820Z,0.00
2019-01-09T04:58:46.842Z,0.00
2019-01-09T04:59:46.865Z,0.00
2019-01-09T05:00:46.889Z,0.00
2019-01-09T05:01:46.906Z,0.00
2019-01-09T05:02:46.931Z,0.00
2019-01-09T05:03:46.951Z,0.00
2019-01-09T05:04:49.342Z,0.00
2019-01-09T05:05:47.013Z,0.00
2019-01-09T05:06:47.027Z,0.00
2019-01-09T05:07:47.039Z,0.00
2019-01-09T05:08:47.059Z,0.00
2019-01-09T05:09:47.083Z,0.00
2019-01-09T05:10:47.109Z,0.00
2019-01-09T05:11:47.124Z,0.00
2019-01-09T05:12:47.152Z,0.00
2019-01-09T05:13:47.170Z,0.00
2019-01-09T05:14:47.190Z,0.00
2019-01-09T05:15:47.212Z,0.00
2019-01-09T05:16:47.233Z,0.00
2019-01-09T05:17:47.260Z,0.00
2019-01-09T05:18:47.278Z,0.00
2019-01-09T05:19:47.297Z,0.00
2019-01-09T05:20:47.322Z,0.00
2019-01-09T05:21:47.341Z,0.00
2019-01-09T05:22:47.375Z,0.00
2019-01-09T05:23:47.388Z,0.00
2019-01-09T05:24:47.409Z,0.00
2019-01-09T05:25:47.430Z,0.00
2019-01-09T05:26:47.450Z,0.00
2019-01-09T05:27:47.478Z,0.00
2019-01-09T05:28:47.495Z,0.00
2019-01-09T05:29:47.521Z,0.00
2019-01-09T05:30:47.539Z,0.00
2019-01-09T05:31:47.559Z,0.00
2019-01-09T05:32:47.595Z,0.00
2019-01-09T05:33:47.605Z,0.00
2019-01-09T05:34:47.626Z,0.00
2019-01-09T05:35:47.646Z,0.00
2019-01-09T05:36:47.669Z,0.00
2019-01-09T05:37:47.689Z,0.00
2019-01-09T05:38:47.717Z,0.00
2019-01-09T05:39:47.736Z,0.00
2019-01-09T05:40:47.760Z,0.00
2019-01-09T05:41:47.781Z,0.00
2019-01-09T05:42:47.800Z,0.00
2019-01-09T05:43:47.825Z,0.00
2019-01-09T05:44:47.852Z,0.00
2019-01-09T05:45:47.865Z,0.00
2019-01-09T05:46:47.890Z,0.00
2019-01-09T05:47:47.913Z,0.00
2019-01-09T05:48:47.933Z,0.00
2019-01-09T05:49:48.063Z,0.00
2019-01-09T05:50:47.980Z,0.00
2019-01-09T05:51:48.033Z,0.00
2019-01-09T05:52:48.024Z,0.00
2019-01-09T05:53:48.040Z,0.00
2019-01-09T05:54:48.078Z,0.00
2019-01-09T05:55:48.089Z,0.00
2019-01-09T05:56:48.112Z,0.00
2019-01-09T05:57:48.132Z,0.00
2019-01-09T05:58:48.151Z,0.00
2019-01-09T05:59:48.178Z,0.00
2019-01-09T06:00:48.198Z,0.00
2019-01-09T06:01:48.217Z,0.00
2019-01-09T06:02:48.242Z,0.00
2019-01-09T06:03:48.264Z,0.00
2019-01-09T06:04:48.285Z,0.00
2019-01-09T06:05:48.314Z,0.00
2019-01-09T06:06:48.330Z,0.00
2019-01-09T06:07:48.351Z,0.00
2019-01-09T06:08:48.373Z,0.00
2019-01-09T06:09:48.396Z,0.00
2019-01-09T06:10:48.419Z,0.00
2019-01-09T06:11:48.492Z,0.00
2019-01-09T06:12:48.461Z,0.00
2019-01-09T06:13:48.485Z,0.00
2019-01-09T06:14:48.506Z,0.00
2019-01-09T06:15:48.525Z,0.00
2019-01-09T06:16:48.548Z,0.00
2019-01-09T06:17:48.569Z,0.00
2019-01-09T06:18:48.591Z,0.00
2019-01-09T06:19:48.616Z,0.00
2019-01-09T06:20:48.641Z,0.00
2019-01-09T06:21:48.656Z,0.00
2019-01-09T06:22:48.680Z,0.00
2019-01-09T06:23:48.704Z,0.00
2019-01-09T06:24:48.722Z,0.00
2019-01-09T06:25:48.743Z,0.00
2019-01-09T06:26:48.768Z,0.00
2019-01-09T06:27:48.788Z,0.00
2019-01-09T06:28:48.809Z,0.00
2019-01-09T06:29:48.833Z,0.00
2019-01-09T06:30:48.853Z,0.00
2019-01-09T06:31:48.877Z,0.00
2019-01-09T06:32:48.897Z,0.00
2019-01-09T06:33:48.918Z,0.00
2019-01-09T06:34:48.945Z,0.00
2019-01-09T06:35:48.963Z,0.00
2019-01-09T06:36:48.985Z,0.00
2019-01-09T06:37:49.009Z,0.00
2019-01-09T06:38:49.029Z,0.00
2019-01-09T06:39:49.051Z,0.00
2019-01-09T06:40:49.075Z,0.00
2019-01-09T06:41:49.095Z,0.00
2019-01-09T06:42:49.116Z,0.00
2019-01-09T06:43:49.136Z,0.00
2019-01-09T06:44:49.160Z,0.00
2019-01-09T06:45:49.182Z,0.00
2019-01-09T06:46:49.203Z,0.00
2019-01-09T06:47:49.225Z,0.00
2019-01-09T06:48:49.248Z,0.00
2019-01-09T06:49:49.267Z,0.00
2019-01-09T06:50:49.289Z,0.00
2019-01-09T06:51:49.314Z,0.00
2019-01-09T06:52:49.335Z,0.00
2019-01-09T06:53:49.358Z,0.00
2019-01-09T06:54:49.414Z,0.00
2019-01-09T06:55:49.441Z,0.00
2019-01-09T06:56:49.423Z,0.00
2019-01-09T06:57:49.443Z,0.00
2019-01-09T06:58:49.466Z,0.00
2019-01-09T06:59:49.486Z,0.00
2019-01-09T07:00:49.511Z,0.00
2019-01-09T07:01:49.532Z,4.00
2019-01-09T07:02:49.554Z,0.00
2019-01-09T07:03:49.577Z,4.00
2019-01-09T07:04:49.596Z,0.00
2019-01-09T07:05:49.668Z,8.00
2019-01-09T07:06:49.641Z,8.00
2019-01-09T07:07:49.665Z,8.00
2019-01-09T07:08:49.687Z,12.00
2019-01-09T07:09:49.709Z,8.00
2019-01-09T07:10:49.728Z,12.00
2019-01-09T07:11:49.753Z,12.00
2019-01-09T07:12:49.773Z,16.00
2019-01-09T07:13:49.796Z,20.00
2019-01-09T07:14:49.818Z,24.00
2019-01-09T07:15:49.841Z,28.00
2019-01-09T07:16:49.863Z,32.00
2019-01-09T07:17:49.884Z,40.00
2019-01-09T07:18:49.906Z,44.00
2019-01-09T07:19:49.926Z,56.00
2019-01-09T07:20:49.948Z,64.00
2019-01-09T07:21:49.972Z,72.00
2019-01-09T07:22:49.995Z,88.00
2019-01-09T07:23:50.017Z,100.00
2019-01-09T07:24:50.040Z,108.00
2019-01-09T07:25:50.058Z,124.00
2019-01-09T07:26:50.082Z,136.00
2019-01-09T07:27:50.102Z,148.00
2019-01-09T07:28:50.127Z,168.00
2019-01-09T07:29:50.145Z,180.00
2019-01-09T07:30:50.169Z,200.00
2019-01-09T07:31:50.191Z,220.00
2019-01-09T07:32:50.211Z,236.00
2019-01-09T07:33:50.235Z,256.00
2019-01-09T07:34:50.258Z,276.00
2019-01-09T07:35:50.278Z,296.00
2019-01-09T07:36:50.302Z,320.00
2019-01-09T07:37:50.323Z,340.00
2019-01-09T07:38:50.343Z,364.00
2019-01-09T07:39:50.367Z,384.00
2019-01-09T07:40:50.389Z,416.00
2019-01-09T07:41:50.409Z,444.00
2019-01-09T07:42:50.430Z,472.00
2019-01-09T07:43:50.455Z,508.00
2019-01-09T07:44:50.478Z,536.00
2019-01-09T07:45:50.498Z,568.00
2019-01-09T07:46:50.520Z,600.00
2019-01-09T07:47:50.539Z,636.00
2019-01-09T07:48:50.562Z,672.00
2019-01-09T07:49:50.586Z,704.00
2019-01-09T07:50:50.607Z,744.00
2019-01-09T07:51:50.629Z,784.00
2019-01-09T07:52:50.649Z,828.00
2019-01-09T07:53:50.672Z,868.00
2019-01-09T07:54:50.695Z,900.00
2019-01-09T07:55:50.716Z,940.00
2019-01-09T07:56:50.738Z,972.00
2019-01-09T07:57:50.759Z,1012.00
2019-01-09T07:58:50.781Z,1048.00
2019-01-09T07:59:50.803Z,1088.00
2019-01-09T08:00:50.826Z,1128.00
2019-01-09T08:01:50.844Z,1164.00
2019-01-09T08:02:50.882Z,1204.00
2019-01-09T08:03:50.890Z,1240.00
2019-01-09T08:04:50.912Z,1280.00
2019-01-09T08:05:50.933Z,1328.00
2019-01-09T08:06:50.952Z,1380.00
2019-01-09T08:07:54.100Z,1444.00
2019-01-09T08:08:50.997Z,1544.00
2019-01-09T08:09:51.019Z,1660.00
2019-01-09T08:10:51.042Z,1696.00
2019-01-09T08:11:51.061Z,1712.00
2019-01-09T08:12:51.084Z,1772.00
2019-01-09T08:13:51.107Z,1928.00
2019-01-09T08:14:51.129Z,2196.00
2019-01-09T08:15:51.148Z,2312.00
2019-01-09T08:16:51.171Z,2416.00
2019-01-09T08:17:51.193Z,2628.00
2019-01-09T08:18:51.216Z,2768.00
2019-01-09T08:19:51.237Z,2560.00
2019-01-09T08:20:51.260Z,2304.00
2019-01-09T08:21:51.280Z,2084.00
2019-01-09T08:22:51.300Z,1892.00
2019-01-09T08:23:51.403Z,1932.00
2019-01-09T08:24:51.398Z,1948.00
2019-01-09T08:25:51.422Z,1740.00
2019-01-09T08:26:51.389Z,1612.00
2019-01-09T08:27:51.412Z,1508.00
2019-01-09T08:28:51.433Z,1500.00
2019-01-09T08:29:51.453Z,1668.00
2019-01-09T08:30:51.477Z,2024.00
2019-01-09T08:31:51.498Z,2348.00
2019-01-09T08:32:51.521Z,2792.00
2019-01-09T08:33:51.540Z,3344.00
2019-01-09T08:34:51.563Z,4000.00
2019-01-09T08:35:51.585Z,4484.00
2019-01-09T08:36:51.607Z,4872.00
2019-01-09T08:37:51.630Z,4284.00
2019-01-09T08:38:51.653Z,3992.00
2019-01-09T08:39:51.673Z,4228.00
2019-01-09T08:40:51.698Z,5912.00
2019-01-09T08:41:51.742Z,5904.00
2019-01-09T08:42:51.749Z,5036.00
2019-01-09T08:43:51.763Z,4512.00
2019-01-09T08:44:51.784Z,4340.00
2019-01-09T08:45:51.805Z,4060.00
2019-01-09T08:46:51.832Z,3860.00
2019-01-09T08:47:51.850Z,4072.00
2019-01-09T08:48:51.872Z,4032.00
2019-01-09T08:49:51.896Z,4076.00
2019-01-09T08:50:51.917Z,3756.00
2019-01-09T08:51:51.943Z,4736.00
2019-01-09T08:52:51.966Z,5124.00
2019-01-09T08:53:51.983Z,5084.00
2019-01-09T08:54:52.008Z,4804.00
2019-01-09T08:55:52.030Z,5300.00
2019-01-09T08:56:52.051Z,5892.00
2019-01-09T08:57:52.075Z,5516.00
2019-01-09T08:58:52.097Z,5152.00
2019-01-09T08:59:52.123Z,5200.00
2019-01-09T09:00:52.150Z,5588.00
2019-01-09T09:01:52.163Z,6388.00
2019-01-09T09:02:52.189Z,7348.00
2019-01-09T09:03:52.210Z,8552.00
2019-01-09T09:04:52.233Z,8448.00
2019-01-09T09:05:52.256Z,8720.00
2019-01-09T09:06:52.285Z,7312.00
2019-01-09T09:07:52.298Z,8300.00
2019-01-09T09:08:52.324Z,9052.00
2019-01-09T09:09:52.345Z,7828.00
2019-01-09T09:10:52.366Z,6828.00
2019-01-09T09:11:52.398Z,7792.00
2019-01-09T09:12:52.416Z,6596.00
2019-01-09T09:13:52.436Z,6172.00
2019-01-09T09:14:52.463Z,7676.00
2019-01-09T09:15:52.481Z,8812.00
2019-01-09T09:16:52.509Z,8100.00
2019-01-09T09:17:52.528Z,7672.00
2019-01-09T09:18:52.549Z,10240.00
2019-01-09T09:19:52.575Z,6804.00
2019-01-09T09:20:52.595Z,6084.00
2019-01-09T09:21:52.618Z,6320.00
2019-01-09T09:22:52.739Z,7816.00
2019-01-09T09:23:52.667Z,7744.00
2019-01-09T09:24:52.687Z,58240.00
2019-01-09T09:25:52.713Z,54432.00
2019-01-09T09:26:52.734Z,55264.00
2019-01-09T09:27:52.761Z,56928.00
2019-01-09T09:28:52.784Z,59200.00
2019-01-09T09:29:52.806Z,60800.00
2019-01-09T09:30:52.833Z,60960.00
2019-01-09T09:31:52.857Z,58464.00
2019-01-09T09:32:52.884Z,57664.00
2019-01-09T09:33:52.906Z,59904.00
2019-01-09T09:34:52.932Z,66752.00
2019-01-09T09:35:52.958Z,68320.00
2019-01-09T09:36:52.984Z,67936.00
2019-01-09T09:37:53.010Z,66304.00
2019-01-09T09:38:53.037Z,62592.00
2019-01-09T09:39:53.062Z,62816.00
2019-01-09T09:40:53.088Z,68224.00
2019-01-09T09:41:53.115Z,71008.00
2019-01-09T09:42:53.145Z,70208.00
2019-01-09T09:43:53.175Z,69728.00
2019-01-09T09:44:53.201Z,69216.00
2019-01-09T09:45:53.228Z,69792.00
2019-01-09T09:46:53.257Z,71200.00
2019-01-09T09:47:53.285Z,72096.00
2019-01-09T09:48:53.311Z,71072.00
2019-01-09T09:49:53.340Z,70464.00
2019-01-09T09:50:53.368Z,69472.00
2019-01-09T09:51:53.400Z,70272.00
2019-01-09T09:52:53.428Z,70656.00
2019-01-09T09:53:53.456Z,70784.00
2019-01-09T09:54:54.699Z,69120.00
2019-01-09T09:55:53.513Z,70528.00
2019-01-09T09:56:53.546Z,71296.00
2019-01-09T09:57:53.574Z,72992.00
2019-01-09T09:58:53.603Z,66688.00
2019-01-09T09:59:53.631Z,49312.00
2019-01-09T10:00:53.661Z,31520.00
2019-01-09T10:01:53.694Z,15188.00
2019-01-09T10:02:53.720Z,8204.00
2019-01-09T10:03:53.752Z,8032.00
2019-01-09T10:04:53.780Z,7880.00
2019-01-09T10:05:53.812Z,7720.00
2019-01-09T10:06:53.840Z,7624.00
2019-01-09T10:07:53.873Z,7544.00
2019-01-09T10:08:53.900Z,7580.00
2019-01-09T10:09:53.926Z,7600.00
2019-01-09T10:10:53.952Z,7704.00
2019-01-09T10:11:53.981Z,7816.00
2019-01-09T10:12:54.012Z,7912.00
2019-01-09T10:13:54.037Z,8092.00
2019-01-09T10:14:54.065Z,7772.00
2019-01-09T10:15:54.093Z,7620.00
2019-01-09T10:16:54.120Z,7628.00
2019-01-09T10:17:54.146Z,7604.00
2019-01-09T10:18:54.173Z,7568.00
2019-01-09T10:19:54.202Z,7476.00
2019-01-09T10:20:54.413Z,7688.00
2019-01-09T10:21:54.255Z,7688.00
2019-01-09T10:22:54.282Z,7480.00
2019-01-09T10:23:54.311Z,7644.00
2019-01-09T10:24:54.332Z,7976.00
2019-01-09T10:25:54.359Z,8412.00
2019-01-09T10:26:54.389Z,8532.00
2019-01-09T10:27:54.415Z,7936.00
2019-01-09T10:28:54.435Z,9048.00
2019-01-09T10:29:54.459Z,8724.00
2019-01-09T10:30:54.485Z,8296.00
2019-01-09T10:31:54.513Z,9064.00
2019-01-09T10:32:54.538Z,9692.00
2019-01-09T10:33:54.564Z,10448.00
2019-01-09T10:34:54.585Z,8632.00
2019-01-09T10:35:54.611Z,8128.00
2019-01-09T10:36:54.638Z,9392.00
2019-01-09T10:37:54.660Z,9296.00
2019-01-09T10:38:54.688Z,8676.00
2019-01-09T10:39:54.710Z,8628.00
2019-01-09T10:40:54.737Z,8244.00
2019-01-09T10:41:54.761Z,9248.00
2019-01-09T10:42:54.783Z,9532.00
2019-01-09T10:43:54.810Z,10668.00
2019-01-09T10:44:54.833Z,11520.00
2019-01-09T10:45:54.860Z,11760.00
2019-01-09T10:46:54.881Z,10580.00
2019-01-09T10:47:54.905Z,11136.00
2019-01-09T10:48:54.930Z,10840.00
2019-01-09T10:49:54.955Z,10260.00
2019-01-09T10:50:54.979Z,11344.00
2019-01-09T10:51:55.005Z,11324.00
2019-01-09T10:52:55.029Z,10872.00
2019-01-09T10:53:55.052Z,11372.00
2019-01-09T10:54:55.074Z,11712.00
2019-01-09T10:55:55.099Z,12208.00
2019-01-09T10:56:55.123Z,11828.00
2019-01-09T10:57:55.150Z,12412.00
2019-01-09T10:58:55.171Z,11560.00
2019-01-09T10:59:55.198Z,10212.00
2019-01-09T11:00:55.220Z,9344.00
2019-01-09T11:01:55.243Z,10144.00
2019-01-09T11:02:55.268Z,9524.00
2019-01-09T11:03:55.294Z,10692.00
2019-01-09T11:04:55.319Z,10940.00
2019-01-09T11:05:55.339Z,9212.00
2019-01-09T11:06:55.365Z,10372.00
2019-01-09T11:07:55.392Z,11936.00
2019-01-09T11:08:55.413Z,10276.00
2019-01-09T11:09:55.438Z,8952.00
2019-01-09T11:10:55.462Z,8228.00
2019-01-09T11:11:55.486Z,9144.00
2019-01-09T11:12:55.510Z,8588.00
2019-01-09T11:13:55.537Z,7056.00
2019-01-09T11:14:55.560Z,7064.00
2019-01-09T11:15:55.582Z,8792.00
2019-01-09T11:16:55.605Z,12276.00
2019-01-09T11:17:55.630Z,12488.00
2019-01-09T11:18:55.652Z,9600.00
2019-01-09T11:19:55.675Z,9396.00
2019-01-09T11:20:55.700Z,7136.00
2019-01-09T11:21:55.723Z,7588.00
2019-01-09T11:22:55.749Z,11132.00
2019-01-09T11:23:55.773Z,12776.00
2019-01-09T11:24:55.795Z,11452.00
2019-01-09T11:25:55.820Z,9084.00
2019-01-09T11:26:55.842Z,9740.00
2019-01-09T11:27:55.870Z,9652.00
2019-01-09T11:28:55.890Z,11752.00
2019-01-09T11:29:55.916Z,11444.00
2019-01-09T11:30:55.940Z,11388.00
2019-01-09T11:31:55.964Z,7860.00
2019-01-09T11:32:55.987Z,8816.00
2019-01-09T11:33:56.011Z,7496.00
2019-01-09T11:34:56.035Z,8080.00
2019-01-09T11:35:56.058Z,8912.00
2019-01-09T11:36:56.084Z,8908.00
2019-01-09T11:37:56.107Z,7044.00
2019-01-09T11:38:56.145Z,6020.00
2019-01-09T11:39:56.157Z,8252.00
2019-01-09T11:40:56.179Z,7852.00
2019-01-09T11:41:56.202Z,6820.00
2019-01-09T11:42:56.226Z,5404.00
2019-01-09T11:43:56.248Z,5788.00
2019-01-09T11:44:56.276Z,6540.00
2019-01-09T11:45:56.302Z,6036.00
2019-01-09T11:46:56.321Z,6140.00
2019-01-09T11:47:56.345Z,8316.00
2019-01-09T11:48:56.369Z,8780.00
2019-01-09T11:49:56.389Z,8332.00
2019-01-09T11:50:56.416Z,9268.00
2019-01-09T11:51:56.440Z,9484.00
2019-01-09T11:52:56.461Z,9380.00
2019-01-09T11:53:56.485Z,9472.00
2019-01-09T11:54:56.511Z,7932.00
2019-01-09T11:55:56.537Z,6336.00
2019-01-09T11:56:56.557Z,5824.00
2019-01-09T11:57:56.584Z,5532.00
2019-01-09T11:58:56.604Z,5156.00
2019-01-09T11:59:56.627Z,5228.00
2019-01-09T12:00:56.652Z,6276.00
2019-01-09T12:01:56.677Z,9420.00
2019-01-09T12:02:56.791Z,11276.00
2019-01-09T12:03:56.723Z,9488.00
2019-01-09T12:04:56.749Z,9704.00
2019-01-09T12:05:56.773Z,7008.00
2019-01-09T12:06:56.795Z,5868.00
2019-01-09T12:07:56.817Z,5948.00
2019-01-09T12:09:04.266Z,7732.00
2019-01-09T12:09:56.864Z,9468.00
2019-01-09T12:10:57.035Z,10204.00
2019-01-09T12:11:56.913Z,10420.00
2019-01-09T12:12:56.939Z,8840.00
2019-01-09T12:13:56.958Z,8332.00
2019-01-09T12:14:56.984Z,9100.00
2019-01-09T12:15:57.012Z,11748.00
2019-01-09T12:16:57.032Z,11640.00
2019-01-09T12:17:57.054Z,10900.00
2019-01-09T12:18:57.080Z,6628.00
2019-01-09T12:19:57.102Z,6484.00
2019-01-09T12:20:57.126Z,7708.00
2019-01-09T12:21:57.151Z,8976.00
2019-01-09T12:22:57.173Z,10980.00
2019-01-09T12:23:57.200Z,27520.00
2019-01-09T12:24:57.223Z,14916.00
2019-01-09T12:25:57.246Z,42752.00
2019-01-09T12:26:57.270Z,7264.00
2019-01-09T12:27:57.296Z,6164.00
2019-01-09T12:28:57.319Z,7100.00
2019-01-09T12:29:57.339Z,7236.00
2019-01-09T12:30:57.367Z,6932.00
2019-01-09T12:31:57.405Z,9324.00
2019-01-09T12:32:57.414Z,15100.00
2019-01-09T12:33:57.437Z,8024.00
2019-01-09T12:34:57.461Z,7424.00
2019-01-09T12:35:57.486Z,6940.00
2019-01-09T12:36:57.507Z,7036.00
2019-01-09T12:37:57.532Z,7460.00
2019-01-09T12:38:57.555Z,24032.00
2019-01-09T12:39:57.597Z,67040.00
2019-01-09T12:40:57.607Z,15848.00
2019-01-09T12:41:57.626Z,64064.00
2019-01-09T12:42:57.650Z,64576.00
2019-01-09T12:43:57.678Z,10340.00